Bookmark and Share
Track history (hours):
 

MSC Annamaria

Last reported at 2014-Apr-10 21:31 UTC. Time now 2014-Apr-20 20:57 UTC.
Position N 37°29' E 023°41'.
Warning: this ship's position is 9 days out of date.

Length 188 m; draft 6.4 m.

Type: Cargo ship. MMSI: 353852000.

NotesDate/timePositionNaut miles runAvg speedWind from/ knotsBaromVisibWave heightAir tempDewpointWater temp
2014-Apr-10 21:31N 37°29' E 023°41'1313.1
2014-Apr-10 20:33N 37°42' E 023°41'1313.0
2014-Apr-10 19:33N 37°54' E 023°36'3 2.7
2014-Apr-10 18:29N 37°57' E 023°36'0 0.0
2014-Apr-10 17:32N 37°57' E 023°36'0 0.0
2014-Apr-10 16:03N 37°57' E 023°36'0 0.0
2014-Apr-10 15:32N 37°57' E 023°36'0 0.0
2014-Apr-10 14:27N 37°57' E 023°36'0 0.0
2014-Apr-10 13:31N 37°57' E 023°36'0 0.0
2014-Apr-10 12:28N 37°57' E 023°36'0 0.0
2014-Apr-10 11:24N 37°57' E 023°36'0 0.0
2014-Apr-10 10:26N 37°57' E 023°36'0 0.0
2014-Apr-10 09:15N 37°57' E 023°36'0 0.0
2014-Apr-10 08:33N 37°57' E 023°36'0 0.0
2014-Apr-10 07:29N 37°57' E 023°36'0 0.0
2014-Apr-10 06:27N 37°57' E 023°36'0 0.0
2014-Apr-10 05:31N 37°57' E 023°36'0 0.0
2014-Apr-10 04:31N 37°57' E 023°36'3 3.3
2014-Apr-10 03:32N 37°54' E 023°36'0 0.5
2014-Apr-10 02:32N 37°54' E 023°36'8 8.1
2014-Apr-10 01:33N 37°47' E 023°42'19 2.3
2014-Apr-09 17:14N 37°28' E 023°45'0 0.4
2014-Apr-09 16:28N 37°29' E 023°45'7 1.1
2014-Apr-09 10:10N 37°25' E 023°52'1 0.3
2014-Apr-09 07:20N 37°26' E 023°52'3 0.5
2014-Apr-09 02:20N 37°28' E 023°50'1 0.7
2014-Apr-09 00:33N 37°29' E 023°49'1 0.7
2014-Apr-08 23:32N 37°29' E 023°48'1 0.7
2014-Apr-08 22:11N 37°29' E 023°47'0 0.6
2014-Apr-08 21:27N 37°29' E 023°46'37 9.5
2014-Apr-08 17:33N 37°49' E 024°26'2813.4
2014-Apr-08 15:27N 38°07' E 024°53'5413.3
2014-Apr-08 11:27N 38°36' E 025°50'  
2014-Apr-05 02:33N 37°25' E 026°39'1313.3
2014-Apr-05 01:33N 37°12' E 026°39'1613.5
2014-Apr-05 00:21N 36°56' E 026°43'1213.5
2014-Apr-04 23:26N 36°44' E 026°46'  

Dump ship's entire track history

sailing weather and tide predictions

MSC Annamaria — H3HN — position and weather